createdAt,value
2018-01-10T00:01:57.061Z,97.64
2018-01-10T00:04:25.320Z,97.54
2018-01-10T00:06:54.360Z,97.41
2018-01-10T00:09:22.617Z,97.31
2018-01-10T00:11:51.659Z,96.90
2018-01-10T00:14:19.912Z,97.09
2018-01-10T00:16:48.960Z,97.11
2018-01-10T00:19:17.494Z,97.54
2018-01-10T00:21:45.837Z,97.24
2018-01-10T00:24:14.167Z,96.79
2018-01-10T00:26:42.432Z,96.70
2018-01-10T00:29:10.696Z,97.23
2018-01-10T00:31:38.927Z,96.82
2018-01-10T00:34:07.204Z,96.85
2018-01-10T00:36:35.469Z,96.81
2018-01-10T00:39:03.727Z,96.76
2018-01-10T00:41:32.748Z,96.63
2018-01-10T00:44:01.023Z,96.01
2018-01-10T00:46:30.050Z,96.35
2018-01-10T00:48:58.324Z,96.15
2018-01-10T00:51:26.583Z,95.12
2018-01-10T00:53:54.864Z,95.31
2018-01-10T00:56:23.115Z,95.31
2018-01-10T00:58:51.379Z,95.10
2018-01-10T01:01:20.397Z,95.25
2018-01-10T01:03:48.796Z,95.54
2018-01-10T01:06:17.055Z,95.45
2018-01-10T01:08:45.328Z,95.08
2018-01-10T01:11:13.585Z,95.09
2018-01-10T01:13:41.862Z,94.72
2018-01-10T01:16:10.103Z,94.68
2018-01-10T01:18:38.373Z,94.66
2018-01-10T01:21:06.641Z,94.75
2018-01-10T01:23:34.923Z,95.05
2018-01-10T01:26:03.179Z,95.23
2018-01-10T01:28:32.217Z,95.35
2018-01-10T01:31:00.478Z,95.23
2018-01-10T01:33:29.606Z,95.39
2018-01-10T01:35:58.601Z,95.59
2018-01-10T01:38:26.870Z,95.70
2018-01-10T01:40:55.902Z,95.76
2018-01-10T01:43:24.937Z,95.62
2018-01-10T01:45:53.186Z,95.54
2018-01-10T01:48:22.228Z,96.09
2018-01-10T01:50:51.332Z,96.28
2018-01-10T01:53:19.612Z,96.31
2018-01-10T01:55:47.876Z,96.56
2018-01-10T01:58:16.903Z,96.42
2018-01-10T02:00:45.173Z,96.46
2018-01-10T02:03:14.256Z,96.28
2018-01-10T02:05:42.535Z,96.05
2018-01-10T02:08:10.787Z,96.41
2018-01-10T02:10:39.818Z,96.31
2018-01-10T02:13:08.094Z,96.20
2018-01-10T02:15:36.368Z,95.70
2018-01-10T02:18:05.428Z,95.30
2018-01-10T02:20:33.721Z,95.07
2018-01-10T02:23:01.997Z,95.11
2018-01-10T02:25:30.294Z,95.59
2018-01-10T02:28:01.500Z,95.68
2018-01-10T02:30:29.772Z,95.64
2018-01-10T02:32:58.033Z,96.04
2018-01-10T02:35:26.307Z,96.29
2018-01-10T02:37:54.554Z,96.18
2018-01-10T02:40:22.828Z,96.08
2018-01-10T02:42:51.089Z,96.46
2018-01-10T02:45:19.347Z,96.29
2018-01-10T02:47:47.603Z,96.35
2018-01-10T02:50:15.874Z,96.47
2018-01-10T02:52:44.911Z,96.31
2018-01-10T02:55:13.186Z,96.25
2018-01-10T02:57:41.459Z,96.12
2018-01-10T03:00:10.500Z,96.48
2018-01-10T03:02:38.759Z,96.67
2018-01-10T03:05:07.826Z,96.72
2018-01-10T03:07:36.084Z,96.63
2018-01-10T03:10:04.358Z,96.52
2018-01-10T03:12:32.616Z,96.22
2018-01-10T03:15:01.647Z,96.01
2018-01-10T03:17:29.907Z,95.65
2018-01-10T03:19:58.195Z,95.73
2018-01-10T03:22:26.460Z,95.80
2018-01-10T03:24:54.732Z,95.76
2018-01-10T03:27:22.998Z,95.95
2018-01-10T03:29:51.292Z,95.61
2018-01-10T03:32:19.544Z,95.37
2018-01-10T03:34:47.791Z,95.57
2018-01-10T03:37:16.056Z,95.22
2018-01-10T03:39:44.327Z,95.23
2018-01-10T03:42:13.397Z,95.49
2018-01-10T03:44:41.648Z,95.27
2018-01-10T03:47:09.930Z,95.51
2018-01-10T03:49:38.199Z,95.37
2018-01-10T03:52:06.481Z,95.38
2018-01-10T03:54:35.495Z,95.63
2018-01-10T03:57:04.520Z,95.59
2018-01-10T03:59:32.772Z,96.12
2018-01-10T04:02:01.042Z,96.17
2018-01-10T04:04:29.295Z,96.29
2018-01-10T04:06:57.570Z,96.53
2018-01-10T04:09:25.816Z,96.63
2018-01-10T04:11:54.097Z,96.59
2018-01-10T04:14:22.342Z,96.65
2018-01-10T04:16:50.602Z,96.55
2018-01-10T04:19:19.611Z,96.41
2018-01-10T04:21:48.643Z,96.30
2018-01-10T04:24:16.902Z,95.80
2018-01-10T04:26:45.943Z,95.40
2018-01-10T04:29:14.214Z,95.00
2018-01-10T04:31:43.238Z,95.04
2018-01-10T04:34:11.494Z,95.31
2018-01-10T04:36:40.523Z,95.20
2018-01-10T04:39:08.776Z,95.37
2018-01-10T04:41:37.056Z,95.70
2018-01-10T04:44:05.300Z,95.75
2018-01-10T04:46:33.576Z,95.65
2018-01-10T04:49:01.854Z,95.47
2018-01-10T04:51:30.877Z,95.31
2018-01-10T04:53:59.172Z,95.29
2018-01-10T04:56:28.171Z,95.51
2018-01-10T04:58:56.455Z,95.41
2018-01-10T05:01:24.730Z,94.80
2018-01-10T05:03:53.773Z,93.90
2018-01-10T05:06:22.027Z,93.65
2018-01-10T05:08:51.056Z,94.00
2018-01-10T05:11:19.303Z,94.07
2018-01-10T05:13:47.576Z,93.76
2018-01-10T05:16:15.824Z,93.93
2018-01-10T05:18:44.099Z,94.14
2018-01-10T05:21:13.115Z,94.07
2018-01-10T05:23:42.143Z,94.50
2018-01-10T05:26:10.407Z,94.28
2018-01-10T05:28:39.450Z,94.13
2018-01-10T05:31:08.318Z,94.04
2018-01-10T05:33:36.722Z,94.13
2018-01-10T05:36:04.986Z,93.87
2018-01-10T05:38:34.051Z,93.14
2018-01-10T05:41:02.303Z,90.22
2018-01-10T05:43:30.553Z,89.26
2018-01-10T05:45:59.592Z,87.99
2018-01-10T05:48:27.856Z,87.21
2018-01-10T05:50:56.142Z,86.36
2018-01-10T05:53:24.424Z,85.54
2018-01-10T05:55:52.665Z,85.30
2018-01-10T05:58:20.987Z,85.10
2018-01-10T06:00:49.287Z,84.45
2018-01-10T06:03:17.580Z,84.11
2018-01-10T06:05:45.880Z,83.94
2018-01-10T06:08:14.247Z,86.58
2018-01-10T06:10:42.504Z,88.11
2018-01-10T06:13:10.781Z,89.01
2018-01-10T06:15:39.056Z,89.70
2018-01-10T06:18:07.350Z,89.86
2018-01-10T06:20:36.356Z,90.07
2018-01-10T06:23:05.351Z,90.12
2018-01-10T06:25:34.444Z,90.37
2018-01-10T06:28:02.653Z,88.84
2018-01-10T06:30:31.692Z,88.29
2018-01-10T06:32:59.940Z,88.21
2018-01-10T06:35:28.986Z,87.79
2018-01-10T06:37:57.237Z,88.42
2018-01-10T06:40:26.263Z,88.62
2018-01-10T06:42:54.528Z,89.64
2018-01-10T06:45:22.795Z,89.72
2018-01-10T06:47:51.084Z,87.39
2018-01-10T06:50:19.425Z,87.85
2018-01-10T06:52:47.664Z,87.98
2018-01-10T06:55:16.004Z,87.99
2018-01-10T06:57:44.306Z,88.06
2018-01-10T07:00:12.584Z,88.12
2018-01-10T07:02:40.856Z,88.41
2018-01-10T07:05:09.929Z,88.52
2018-01-10T07:07:38.957Z,88.47
2018-01-10T07:10:08.002Z,88.62
2018-01-10T07:12:37.015Z,88.47
2018-01-10T07:15:05.309Z,88.74
2018-01-10T07:17:33.565Z,88.40
2018-01-10T07:20:02.601Z,89.11
2018-01-10T07:22:31.760Z,88.41
2018-01-10T07:25:00.053Z,88.71
2018-01-10T07:27:28.328Z,89.12
2018-01-10T07:29:56.639Z,89.31
2018-01-10T07:32:25.654Z,89.19
2018-01-10T07:34:54.691Z,89.26
2018-01-10T07:37:22.954Z,88.72
2018-01-10T07:39:51.977Z,88.86
2018-01-10T07:42:20.235Z,88.57
2018-01-10T07:44:48.514Z,87.72
2018-01-10T07:47:16.758Z,88.04
2018-01-10T07:49:45.006Z,87.95
2018-01-10T07:52:14.042Z,88.34
2018-01-10T07:54:42.305Z,87.63
2018-01-10T07:57:11.340Z,87.33
2018-01-10T07:59:39.593Z,87.67
2018-01-10T08:02:08.626Z,87.86
2018-01-10T08:04:36.887Z,87.44
2018-01-10T08:07:05.152Z,87.72
2018-01-10T08:09:33.404Z,87.76
2018-01-10T08:12:02.475Z,87.73
2018-01-10T08:14:31.491Z,87.32
2018-01-10T08:17:00.528Z,86.23
2018-01-10T08:19:28.784Z,86.69
2018-01-10T08:21:57.852Z,86.71
2018-01-10T08:24:26.124Z,86.58
2018-01-10T08:26:54.403Z,86.20
2018-01-10T08:29:22.671Z,86.00
2018-01-10T08:31:51.722Z,85.28
2018-01-10T08:34:19.964Z,85.07
2018-01-10T08:36:48.996Z,84.55
2018-01-10T08:39:17.250Z,84.20
2018-01-10T08:41:45.528Z,83.09
2018-01-10T08:44:13.841Z,83.21
2018-01-10T08:46:42.877Z,82.61
2018-01-10T08:49:11.131Z,82.55
2018-01-10T08:51:40.183Z,83.33
2018-01-10T08:54:08.436Z,83.51
2018-01-10T08:56:36.710Z,82.85
2018-01-10T08:59:05.734Z,82.65
2018-01-10T09:01:34.027Z,83.55
2018-01-10T09:04:02.280Z,83.23
2018-01-10T09:06:30.560Z,82.42
2018-01-10T09:08:58.805Z,80.73
2018-01-10T09:11:27.092Z,80.46
2018-01-10T09:13:55.348Z,79.82
2018-01-10T09:16:24.395Z,79.38
2018-01-10T09:18:52.676Z,79.09
2018-01-10T09:21:20.947Z,77.14
2018-01-10T09:23:49.966Z,76.63
2018-01-10T09:26:19.022Z,76.09
2018-01-10T09:28:47.284Z,76.67
2018-01-10T09:31:15.552Z,76.00
2018-01-10T09:33:43.800Z,76.99
2018-01-10T09:36:12.076Z,75.67
2018-01-10T09:38:40.338Z,75.85
2018-01-10T09:41:09.120Z,75.12
2018-01-10T09:43:37.397Z,75.18
2018-01-10T09:46:06.418Z,75.85
2018-01-10T09:48:34.675Z,75.33
2018-01-10T09:51:03.871Z,75.01
2018-01-10T09:53:32.146Z,75.38
2018-01-10T09:56:00.403Z,73.90
2018-01-10T09:58:28.691Z,73.77
2018-01-10T10:00:56.946Z,73.35
2018-01-10T10:03:25.971Z,72.99
2018-01-10T10:05:54.241Z,72.93
2018-01-10T10:08:22.512Z,71.98
2018-01-10T10:10:50.782Z,72.17
2018-01-10T10:13:19.040Z,72.21
2018-01-10T10:15:47.340Z,70.43
2018-01-10T10:18:15.605Z,70.63
2018-01-10T10:20:44.611Z,70.12
2018-01-10T10:23:12.890Z,69.32
2018-01-10T10:25:41.896Z,69.68
2018-01-10T10:28:10.932Z,67.81
2018-01-10T10:30:39.196Z,66.98
2018-01-10T10:33:07.475Z,66.75
2018-01-10T10:35:36.519Z,65.14
2018-01-10T10:38:04.791Z,64.35
2018-01-10T10:40:33.039Z,65.60
2018-01-10T10:43:02.436Z,63.80
2018-01-10T10:45:30.708Z,64.48
2018-01-10T10:47:59.009Z,62.67
2018-01-10T10:50:27.260Z,61.97
2018-01-10T10:52:55.642Z,63.35
2018-01-10T10:55:24.666Z,62.72
2018-01-10T10:57:52.928Z,62.21
2018-01-10T11:00:21.960Z,59.52
2018-01-10T11:02:50.216Z,59.00
2018-01-10T11:05:18.496Z,56.45
2018-01-10T11:07:46.754Z,54.59
2018-01-10T11:10:15.804Z,52.74
2018-01-10T11:12:44.840Z,52.42
2018-01-10T11:15:13.123Z,52.17
2018-01-10T11:17:42.175Z,50.46
2018-01-10T11:20:10.417Z,52.17
2018-01-10T11:22:38.698Z,50.79
2018-01-10T11:25:07.820Z,51.17
2018-01-10T11:27:36.109Z,51.06
2018-01-10T11:30:04.407Z,50.52
2018-01-10T11:32:33.719Z,49.74
2018-01-10T11:35:01.989Z,50.64
2018-01-10T11:37:31.021Z,49.97
2018-01-10T11:39:59.298Z,50.92
2018-01-10T11:42:27.576Z,49.48
2018-01-10T11:44:56.629Z,50.95
2018-01-10T11:47:24.885Z,50.03
2018-01-10T11:49:53.170Z,50.13
2018-01-10T11:52:22.196Z,49.66
2018-01-10T11:54:50.500Z,49.04
2018-01-10T11:57:18.777Z,49.96
2018-01-10T11:59:47.069Z,47.25
2018-01-10T12:02:15.337Z,47.93
2018-01-10T12:04:43.631Z,48.89
2018-01-10T12:07:11.908Z,48.17
2018-01-10T12:09:40.200Z,47.51
2018-01-10T12:12:09.235Z,46.86
2018-01-10T12:14:37.606Z,46.15
2018-01-10T12:17:05.876Z,47.22
2018-01-10T12:19:34.919Z,48.10
2018-01-10T12:22:03.198Z,47.76
2018-01-10T12:24:31.467Z,47.24
2018-01-10T12:27:00.528Z,46.62
2018-01-10T12:29:28.830Z,47.64
2018-01-10T12:31:57.879Z,47.87
2018-01-10T12:34:26.152Z,45.63
2018-01-10T12:36:55.223Z,46.23
2018-01-10T12:39:23.496Z,46.11
2018-01-10T12:41:51.774Z,46.18
2018-01-10T12:44:20.056Z,46.44
2018-01-10T12:46:48.333Z,47.44
2018-01-10T12:49:16.587Z,46.79
2018-01-10T12:51:44.863Z,47.38
2018-01-10T12:54:13.126Z,45.88
2018-01-10T12:56:41.436Z,46.28
2018-01-10T12:59:09.710Z,47.37
2018-01-10T13:01:38.008Z,47.48
2018-01-10T13:04:06.273Z,46.95
2018-01-10T13:06:34.547Z,46.70
2018-01-10T13:09:02.831Z,47.05
2018-01-10T13:11:31.128Z,46.96
2018-01-10T13:13:59.447Z,47.21
2018-01-10T13:16:27.719Z,48.45
2018-01-10T13:18:56.014Z,48.64
2018-01-10T13:21:24.300Z,47.51
2018-01-10T13:23:53.348Z,48.85
2018-01-10T13:26:21.664Z,47.68
2018-01-10T13:28:50.693Z,45.42
2018-01-10T13:31:18.982Z,46.31
2018-01-10T13:33:47.244Z,44.77
2018-01-10T13:36:16.295Z,45.64
2018-01-10T13:38:44.548Z,47.02
2018-01-10T13:41:13.615Z,47.02
2018-01-10T13:43:41.908Z,48.42
2018-01-10T13:46:10.176Z,48.62
2018-01-10T13:48:38.468Z,50.55
2018-01-10T13:51:07.253Z,62.98
2018-01-10T13:53:35.532Z,54.86
2018-01-10T13:56:03.787Z,56.10
2018-01-10T13:58:32.834Z,56.74
2018-01-10T14:01:01.126Z,57.78
2018-01-10T14:03:29.411Z,59.51
2018-01-10T14:05:57.684Z,59.17
2018-01-10T14:08:26.728Z,60.11
2018-01-10T14:10:54.977Z,60.72
2018-01-10T14:13:24.017Z,62.42
2018-01-10T14:15:52.303Z,62.87
2018-01-10T14:18:20.638Z,63.35
2018-01-10T14:20:48.869Z,63.81
2018-01-10T14:23:17.148Z,64.44
2018-01-10T14:25:46.161Z,65.03
2018-01-10T14:28:14.439Z,65.54
2018-01-10T14:30:43.469Z,65.49
2018-01-10T14:33:11.752Z,65.59
2018-01-10T14:35:40.004Z,66.14
2018-01-10T14:38:08.280Z,66.36
2018-01-10T14:40:36.531Z,65.81
2018-01-10T14:43:04.808Z,65.78
2018-01-10T14:45:33.075Z,65.84
2018-01-10T14:48:02.159Z,66.24
2018-01-10T14:50:30.414Z,65.89
2018-01-10T14:52:58.723Z,66.29
2018-01-10T14:55:26.987Z,66.52
2018-01-10T14:57:55.240Z,66.68
2018-01-10T15:00:24.258Z,67.08
2018-01-10T15:02:52.534Z,67.66
2018-01-10T15:05:21.576Z,68.03
2018-01-10T15:07:49.885Z,68.77
2018-01-10T15:10:18.146Z,69.27
2018-01-10T15:12:46.437Z,69.94
2018-01-10T15:15:14.719Z,70.01
2018-01-10T15:17:43.750Z,69.91
2018-01-10T15:20:12.040Z,69.60
2018-01-10T15:22:40.313Z,68.86
2018-01-10T15:25:08.650Z,66.86
2018-01-10T15:27:36.912Z,67.63
2018-01-10T15:30:05.201Z,67.17
2018-01-10T15:32:33.473Z,67.90
2018-01-10T15:35:01.751Z,68.10
2018-01-10T15:37:30.029Z,66.94
2018-01-10T15:39:59.069Z,66.81
2018-01-10T15:42:27.348Z,66.88
2018-01-10T15:44:55.616Z,67.74
2018-01-10T15:47:24.676Z,67.79
2018-01-10T15:49:52.944Z,69.09
2018-01-10T15:52:21.213Z,68.44
2018-01-10T15:54:49.479Z,68.16
2018-01-10T15:57:17.723Z,69.10
2018-01-10T15:59:46.013Z,69.16
2018-01-10T16:02:14.261Z,70.27
2018-01-10T16:04:43.296Z,70.26
2018-01-10T16:07:11.586Z,71.40
2018-01-10T16:09:39.894Z,71.49
2018-01-10T16:12:08.191Z,71.19
2018-01-10T16:14:37.185Z,71.41
2018-01-10T16:17:05.463Z,70.86
2018-01-10T16:19:33.730Z,71.20
2018-01-10T16:22:02.064Z,71.65
2018-01-10T16:24:30.316Z,71.44
2018-01-10T16:26:58.560Z,71.96
2018-01-10T16:29:26.821Z,71.92
2018-01-10T16:31:55.073Z,72.30
2018-01-10T16:34:23.314Z,72.23
2018-01-10T16:36:51.596Z,71.82
2018-01-10T16:39:19.845Z,72.46
2018-01-10T16:41:48.108Z,72.48
2018-01-10T16:44:17.132Z,72.92
2018-01-10T16:46:45.395Z,73.18
2018-01-10T16:49:13.667Z,73.53
2018-01-10T16:51:42.006Z,73.47
2018-01-10T16:54:10.267Z,73.63
2018-01-10T16:56:38.590Z,73.96
2018-01-10T16:59:06.861Z,73.97
2018-01-10T17:01:35.892Z,74.38
2018-01-10T17:04:04.201Z,74.51
2018-01-10T17:06:33.280Z,74.27
2018-01-10T17:09:01.556Z,74.46
2018-01-10T17:11:30.738Z,75.18
2018-01-10T17:13:59.030Z,75.19
2018-01-10T17:16:27.363Z,75.45
2018-01-10T17:18:55.627Z,74.98
2018-01-10T17:21:24.681Z,74.97
2018-01-10T17:23:52.941Z,74.87
2018-01-10T17:26:21.976Z,74.94
2018-01-10T17:28:50.260Z,75.10
2018-01-10T17:31:18.599Z,75.02
2018-01-10T17:33:46.860Z,75.20
2018-01-10T17:36:15.149Z,74.80
2018-01-10T17:38:43.423Z,75.02
2018-01-10T17:41:11.712Z,75.08
2018-01-10T17:43:39.980Z,75.01
2018-01-10T17:46:08.274Z,75.51
2018-01-10T17:48:36.583Z,76.07
2018-01-10T17:51:04.877Z,75.99
2018-01-10T17:53:33.896Z,75.77
2018-01-10T17:56:02.204Z,75.82
2018-01-10T17:58:31.284Z,75.60
2018-01-10T18:00:59.605Z,75.35
2018-01-10T18:03:28.064Z,74.44
2018-01-10T18:05:56.346Z,74.70
2018-01-10T18:08:24.627Z,73.34
2018-01-10T18:10:52.921Z,73.00
2018-01-10T18:13:21.211Z,73.90
2018-01-10T18:15:49.491Z,73.48
2018-01-10T18:18:17.781Z,72.94
2018-01-10T18:20:46.805Z,71.97
2018-01-10T18:23:15.100Z,70.76
2018-01-10T18:25:43.381Z,71.11
2018-01-10T18:28:11.666Z,71.02
2018-01-10T18:30:39.925Z,70.29
2018-01-10T18:33:08.975Z,71.00
2018-01-10T18:35:37.236Z,69.40
2018-01-10T18:38:05.544Z,68.05
2018-01-10T18:40:33.820Z,68.11
2018-01-10T18:43:02.119Z,68.27
2018-01-10T18:45:30.402Z,67.34
2018-01-10T18:47:58.691Z,66.97
2018-01-10T18:50:26.959Z,66.86
2018-01-10T18:52:55.229Z,66.20
2018-01-10T18:55:23.529Z,66.20
2018-01-10T18:57:51.811Z,67.03
2018-01-10T19:00:20.103Z,65.65
2018-01-10T19:02:48.385Z,66.09
2018-01-10T19:05:16.659Z,65.53
2018-01-10T19:07:44.935Z,65.47
2018-01-10T19:10:13.270Z,65.35
2018-01-10T19:12:42.311Z,64.02
2018-01-10T19:15:10.693Z,63.93
2018-01-10T19:17:38.995Z,64.20
2018-01-10T19:20:07.286Z,64.01
2018-01-10T19:22:35.587Z,64.29
2018-01-10T19:25:03.958Z,63.33
2018-01-10T19:27:32.264Z,63.37
2018-01-10T19:30:00.538Z,62.17
2018-01-10T19:32:28.833Z,66.34
2018-01-10T19:34:57.160Z,60.97
2018-01-10T19:37:25.422Z,61.15
2018-01-10T19:39:54.477Z,60.53
2018-01-10T19:42:23.509Z,58.84
2018-01-10T19:44:51.793Z,58.23
2018-01-10T19:47:20.048Z,56.72
2018-01-10T19:49:48.368Z,56.79
2018-01-10T19:52:17.416Z,56.32
2018-01-10T19:54:46.521Z,54.84
2018-01-10T19:57:14.765Z,54.80
2018-01-10T19:59:43.820Z,54.20
2018-01-10T20:02:12.069Z,53.69
2018-01-10T20:04:40.374Z,54.42
2018-01-10T20:07:08.634Z,54.25
2018-01-10T20:09:37.689Z,54.79
2018-01-10T20:12:05.942Z,53.99
2018-01-10T20:14:34.971Z,54.99
2018-01-10T20:17:03.268Z,54.39
2018-01-10T20:19:31.550Z,54.58
2018-01-10T20:21:59.817Z,53.86
2018-01-10T20:24:28.086Z,54.02
2018-01-10T20:26:56.335Z,54.41
2018-01-10T20:29:24.602Z,55.03
2018-01-10T20:31:52.860Z,55.11
2018-01-10T20:34:21.880Z,56.33
2018-01-10T20:36:50.140Z,56.16
2018-01-10T20:39:18.491Z,55.85
2018-01-10T20:41:46.756Z,56.02
2018-01-10T20:44:15.087Z,58.21
2018-01-10T20:46:43.329Z,59.65
2018-01-10T20:49:11.674Z,60.53
2018-01-10T20:51:39.955Z,61.75
2018-01-10T20:54:08.228Z,62.46
2018-01-10T20:56:36.484Z,63.30
2018-01-10T20:59:04.774Z,64.72
2018-01-10T21:01:33.071Z,65.74
2018-01-10T21:04:01.376Z,66.74
2018-01-10T21:06:29.648Z,67.71
2018-01-10T21:08:57.928Z,68.59
2018-01-10T21:11:26.196Z,68.56
2018-01-10T21:13:55.279Z,69.06
2018-01-10T21:16:23.565Z,68.71
2018-01-10T21:18:51.808Z,69.09
2018-01-10T21:21:20.087Z,68.65
2018-01-10T21:23:49.123Z,67.98
2018-01-10T21:26:17.420Z,68.54
2018-01-10T21:28:45.660Z,68.67
2018-01-10T21:31:14.709Z,69.16
2018-01-10T21:33:43.031Z,69.39
2018-01-10T21:36:11.307Z,68.92
2018-01-10T21:38:39.560Z,69.04
2018-01-10T21:41:08.063Z,69.44
2018-01-10T21:43:36.327Z,69.89
2018-01-10T21:46:05.357Z,70.16
2018-01-10T21:48:33.657Z,70.14
2018-01-10T21:51:01.960Z,70.75
2018-01-10T21:53:30.188Z,70.92
2018-01-10T21:55:58.459Z,70.46
2018-01-10T21:58:26.735Z,70.58
2018-01-10T22:00:55.000Z,70.73
2018-01-10T22:03:23.273Z,71.37
2018-01-10T22:05:51.568Z,72.00
2018-01-10T22:08:19.833Z,71.90
2018-01-10T22:10:48.857Z,72.15
2018-01-10T22:13:17.100Z,73.06
2018-01-10T22:15:45.379Z,73.07
2018-01-10T22:18:13.641Z,73.68
2018-01-10T22:20:41.896Z,74.36
2018-01-10T22:23:11.281Z,74.86
2018-01-10T22:25:39.549Z,76.39
2018-01-10T22:28:08.125Z,76.78
2018-01-10T22:30:36.398Z,77.29
2018-01-10T22:33:04.654Z,78.72
2018-01-10T22:35:32.907Z,79.27
2018-01-10T22:38:01.163Z,80.56
2018-01-10T22:40:30.191Z,80.53
2018-01-10T22:42:58.450Z,81.07
2018-01-10T22:45:27.492Z,81.14
2018-01-10T22:47:55.744Z,81.94
2018-01-10T22:50:24.786Z,81.97
2018-01-10T22:52:53.034Z,82.60
2018-01-10T22:55:22.059Z,82.73
2018-01-10T22:57:50.415Z,83.19
2018-01-10T23:00:25.467Z,82.56
2018-01-10T23:02:53.740Z,82.24
2018-01-10T23:05:22.003Z,82.66
2018-01-10T23:07:50.275Z,82.51
2018-01-10T23:10:18.537Z,82.86
2018-01-10T23:12:47.561Z,83.04
2018-01-10T23:15:15.838Z,83.68
2018-01-10T23:17:44.889Z,83.85
2018-01-10T23:20:13.171Z,84.69
2018-01-10T23:22:41.452Z,85.21
2018-01-10T23:25:09.708Z,85.93
2018-01-10T23:27:38.776Z,86.05
2018-01-10T23:30:07.037Z,86.15
2018-01-10T23:32:35.312Z,86.31
2018-01-10T23:35:03.561Z,86.55
2018-01-10T23:37:31.858Z,86.48
2018-01-10T23:40:00.114Z,86.99
2018-01-10T23:42:28.383Z,87.23
2018-01-10T23:44:56.659Z,87.55
2018-01-10T23:47:24.941Z,87.74
2018-01-10T23:49:53.204Z,88.17
2018-01-10T23:52:21.467Z,88.68
2018-01-10T23:54:49.715Z,88.70
2018-01-10T23:57:17.979Z,88.60
2018-01-10T23:59:46.989Z,89.00
